Skip Navigation Links
NOAA logo - Click to go to the NOAA homepage
NOAA's National Weather Service
Alaska Aviation Weather Unit
  NWS logo - Click to go to the NWS homepage
Left Navbar Graphic     21 AKDT = 05 GMT

   
NOAA is celebrating 200 years of science, service, and stewardship. Visit the NOAA 200th celebration Web site to learn more.
USA.gov is the U.S. Government's official Web portal to all Federal, state and local government Web resources and services.
Facebook
NWS on Facebook

Important Change Regarding the AAWU Web Presence

 

Over the last several months, the AAWU has been working to navigate its webpages to a nationally supported server. Security, as well as other needs, have necessitated the change.  In the process, we have made an effort to enhance the functionality of our website, as well as some of our products. As of June 27, 2017, aawu.arh.noaa.gov will be discontinued. The new AAWU web address is weather.gov/aawu. It is now live and will run in-parallel with the old site until it is discontinued. Please send any feedback or questions regarding the new webpages to nws.ar.aawu.webauthors@noaa.gov.  Thank you for your patience during this time of transition.
AAWU Home :: Display TAF Add Bookmark
TAF PAQT 242354Z 2500/2524 23020G25KT P6SM SCT060
     FM251000 24013KT P6SM BKN090=

METAR PAQT 242353Z AUTO 23020G25KT 10SM CLR 18/05 A2990 RMK AO2 PK WND 23026/2352 SLP126 T01830050 10183 20139 58009 TSNO PNO= METAR PAQT 250053Z AUTO 24021G28KT 10SM CLR 18/05 A2990 RMK AO2 PK WND 24028/0049 SLP124 T01830050 TSNO PNO= METAR PAQT 250153Z AUTO 24019KT 10SM CLR 18/04 A2989 RMK AO2 PK WND 24029/0142 SLP123 T01780044 TSNO PNO= METAR PAQT 250253Z AUTO 24017KT 10SM CLR 17/06 A2989 RMK AO2 SLP122 T01720056 56004 TSNO PNO= METAR PAQT 250353Z AUTO 24015KT 10SM CLR 17/05 A2988 RMK AO2 SLP119 T01670050 TSNO PNO= METAR PAQT 250453Z AUTO 24017KT 10SM CLR 16/04 A2988 RMK AO2 SLP118 T01610044 TSNO PNO=
 Alaska TAF Map

NOAA's National Weather Service
Alaska Aviation Weather Unit
6930 Sand Lake Road
Anchorage, AK 99502-1845
Disclaimer
Credits
Glossary
Privacy Policy
About Us
Career Opportunities
Contact AAWU Internet Services Site last modified: April, 17th 2012